sensor_id;sensor_type;location;lat;lon;timestamp;temperature;humidity
64226;DHT22;50545;56.064;26.178;2023-05-14T00:00:29;6.70;99.90
64226;DHT22;50545;56.064;26.178;2023-05-14T00:02:56;6.70;99.90
64226;DHT22;50545;56.064;26.178;2023-05-14T00:05:24;6.60;99.90
64226;DHT22;50545;56.064;26.178;2023-05-14T00:07:51;6.60;99.90
64226;DHT22;50545;56.064;26.178;2023-05-14T00:10:18;6.60;99.90
64226;DHT22;50545;56.064;26.178;2023-05-14T00:12:49;6.60;99.90
64226;DHT22;50545;56.064;26.178;2023-05-14T00:15:17;6.50;99.90
64226;DHT22;50545;56.064;26.178;2023-05-14T00:17:44;6.50;99.90
64226;DHT22;50545;56.064;26.178;2023-05-14T00:20:11;6.50;99.90
64226;DHT22;50545;56.064;26.178;2023-05-14T00:22:39;6.50;99.90
64226;DHT22;50545;56.064;26.178;2023-05-14T00:25:07;6.50;99.90
64226;DHT22;50545;56.064;26.178;2023-05-14T00:27:35;6.50;99.90
64226;DHT22;50545;56.064;26.178;2023-05-14T00:30:04;6.50;99.90
64226;DHT22;50545;56.064;26.178;2023-05-14T00:32:34;6.50;99.90
64226;DHT22;50545;56.064;26.178;2023-05-14T00:35:02;6.40;99.90
64226;DHT22;50545;56.064;26.178;2023-05-14T00:37:30;6.40;99.90
64226;DHT22;50545;56.064;26.178;2023-05-14T00:39:57;6.40;99.90
64226;DHT22;50545;56.064;26.178;2023-05-14T00:42:24;6.40;99.90
64226;DHT22;50545;56.064;26.178;2023-05-14T00:44:53;6.30;99.90
64226;DHT22;50545;56.064;26.178;2023-05-14T00:47:20;6.30;99.90
64226;DHT22;50545;56.064;26.178;2023-05-14T00:49:47;6.20;99.90
64226;DHT22;50545;56.064;26.178;2023-05-14T00:52:15;6.20;99.90
64226;DHT22;50545;56.064;26.178;2023-05-14T00:54:45;6.20;99.90
64226;DHT22;50545;56.064;26.178;2023-05-14T00:57:14;6.10;99.90
64226;DHT22;50545;56.064;26.178;2023-05-14T00:59:42;6.10;99.90
64226;DHT22;50545;56.064;26.178;2023-05-14T01:02:10;6.10;99.90
64226;DHT22;50545;56.064;26.178;2023-05-14T01:04:37;6.10;99.90
64226;DHT22;50545;56.064;26.178;2023-05-14T01:10:52;6.00;99.90
64226;DHT22;50545;56.064;26.178;2023-05-14T01:13:50;6.00;99.90
64226;DHT22;50545;56.064;26.178;2023-05-14T01:16:21;6.00;99.90
64226;DHT22;50545;56.064;26.178;2023-05-14T01:18:49;6.00;99.90
64226;DHT22;50545;56.064;26.178;2023-05-14T01:21:35;6.00;99.90
64226;DHT22;50545;56.064;26.178;2023-05-14T01:24:03;6.00;99.90
64226;DHT22;50545;56.064;26.178;2023-05-14T01:26:31;6.00;99.90
64226;DHT22;50545;56.064;26.178;2023-05-14T01:29:03;5.90;99.90
64226;DHT22;50545;56.064;26.178;2023-05-14T01:31:34;5.90;99.90
64226;DHT22;50545;56.064;26.178;2023-05-14T01:34:03;5.90;99.90
64226;DHT22;50545;56.064;26.178;2023-05-14T01:36:32;5.80;99.90
64226;DHT22;50545;56.064;26.178;2023-05-14T01:39:00;5.80;99.90
64226;DHT22;50545;56.064;26.178;2023-05-14T01:41:28;5.80;99.90
64226;DHT22;50545;56.064;26.178;2023-05-14T01:43:57;5.70;99.90
64226;DHT22;50545;56.064;26.178;2023-05-14T01:46:24;5.60;99.90
64226;DHT22;50545;56.064;26.178;2023-05-14T01:48:51;5.60;99.90
64226;DHT22;50545;56.064;26.178;2023-05-14T01:51:18;5.60;99.90
64226;DHT22;50545;56.064;26.178;2023-05-14T01:53:46;5.60;99.90
64226;DHT22;50545;56.064;26.178;2023-05-14T01:56:13;5.60;99.90
64226;DHT22;50545;56.064;26.178;2023-05-14T01:58:40;5.60;99.90
64226;DHT22;50545;56.064;26.178;2023-05-14T02:01:07;5.50;99.90
64226;DHT22;50545;56.064;26.178;2023-05-14T02:03:35;5.50;99.90
64226;DHT22;50545;56.064;26.178;2023-05-14T02:06:02;5.50;99.90
64226;DHT22;50545;56.064;26.178;2023-05-14T02:08:29;5.50;99.90
64226;DHT22;50545;56.064;26.178;2023-05-14T02:10:56;5.50;99.90
64226;DHT22;50545;56.064;26.178;2023-05-14T02:13:24;5.40;99.90
64226;DHT22;50545;56.064;26.178;2023-05-14T02:15:52;5.40;99.90
64226;DHT22;50545;56.064;26.178;2023-05-14T02:18:19;5.40;99.90
64226;DHT22;50545;56.064;26.178;2023-05-14T02:20:46;5.30;99.90
64226;DHT22;50545;56.064;26.178;2023-05-14T02:23:14;5.30;99.90
64226;DHT22;50545;56.064;26.178;2023-05-14T02:25:41;5.30;99.90
64226;DHT22;50545;56.064;26.178;2023-05-14T02:28:08;5.30;99.90
64226;DHT22;50545;56.064;26.178;2023-05-14T02:30:35;5.20;99.90
64226;DHT22;50545;56.064;26.178;2023-05-14T02:33:03;5.20;99.90
64226;DHT22;50545;56.064;26.178;2023-05-14T02:35:30;5.30;99.90
64226;DHT22;50545;56.064;26.178;2023-05-14T02:37:57;5.20;99.90
64226;DHT22;50545;56.064;26.178;2023-05-14T02:40:25;5.20;99.90
64226;DHT22;50545;56.064;26.178;2023-05-14T02:42:52;5.30;99.90
64226;DHT22;50545;56.064;26.178;2023-05-14T02:45:19;5.30;99.90
64226;DHT22;50545;56.064;26.178;2023-05-14T02:47:47;5.30;99.90
64226;DHT22;50545;56.064;26.178;2023-05-14T02:50:14;5.30;99.90
64226;DHT22;50545;56.064;26.178;2023-05-14T02:52:42;5.30;99.90
64226;DHT22;50545;56.064;26.178;2023-05-14T02:55:09;5.40;99.90
64226;DHT22;50545;56.064;26.178;2023-05-14T02:57:37;5.40;99.90
64226;DHT22;50545;56.064;26.178;2023-05-14T03:00:05;5.40;99.90
64226;DHT22;50545;56.064;26.178;2023-05-14T03:02:33;5.40;99.90
64226;DHT22;50545;56.064;26.178;2023-05-14T03:05:02;5.50;99.90
64226;DHT22;50545;56.064;26.178;2023-05-14T03:07:29;5.50;99.90
64226;DHT22;50545;56.064;26.178;2023-05-14T03:09:56;5.60;99.90
64226;DHT22;50545;56.064;26.178;2023-05-14T03:12:26;5.60;99.90
64226;DHT22;50545;56.064;26.178;2023-05-14T03:14:53;5.70;99.90
64226;DHT22;50545;56.064;26.178;2023-05-14T03:17:20;5.80;99.90
64226;DHT22;50545;56.064;26.178;2023-05-14T03:19:47;5.80;99.90
64226;DHT22;50545;56.064;26.178;2023-05-14T03:22:15;5.90;99.90
64226;DHT22;50545;56.064;26.178;2023-05-14T03:24:42;6.00;99.90
64226;DHT22;50545;56.064;26.178;2023-05-14T03:27:09;6.10;99.90
64226;DHT22;50545;56.064;26.178;2023-05-14T03:29:36;6.20;99.90
64226;DHT22;50545;56.064;26.178;2023-05-14T03:32:04;6.20;99.90
64226;DHT22;50545;56.064;26.178;2023-05-14T03:34:32;6.30;99.90
64226;DHT22;50545;56.064;26.178;2023-05-14T03:36:59;6.40;99.90
64226;DHT22;50545;56.064;26.178;2023-05-14T03:39:26;6.50;99.90
64226;DHT22;50545;56.064;26.178;2023-05-14T03:41:53;6.60;99.90
64226;DHT22;50545;56.064;26.178;2023-05-14T03:44:23;6.70;99.90
64226;DHT22;50545;56.064;26.178;2023-05-14T03:46:51;6.80;99.90
64226;DHT22;50545;56.064;26.178;2023-05-14T03:49:18;6.90;99.90
64226;DHT22;50545;56.064;26.178;2023-05-14T03:51:45;7.00;99.90
64226;DHT22;50545;56.064;26.178;2023-05-14T03:54:12;7.10;99.90
64226;DHT22;50545;56.064;26.178;2023-05-14T03:56:39;7.30;99.90
64226;DHT22;50545;56.064;26.178;2023-05-14T03:59:07;7.40;99.90
64226;DHT22;50545;56.064;26.178;2023-05-14T04:01:34;7.40;99.90
64226;DHT22;50545;56.064;26.178;2023-05-14T04:04:03;7.60;99.90
64226;DHT22;50545;56.064;26.178;2023-05-14T04:06:32;7.70;99.90
64226;DHT22;50545;56.064;26.178;2023-05-14T04:08:59;7.80;99.90
64226;DHT22;50545;56.064;26.178;2023-05-14T04:11:26;7.90;99.90
64226;DHT22;50545;56.064;26.178;2023-05-14T04:13:54;8.00;99.90
64226;DHT22;50545;56.064;26.178;2023-05-14T04:16:21;8.10;99.90
64226;DHT22;50545;56.064;26.178;2023-05-14T04:18:48;8.20;99.90
64226;DHT22;50545;56.064;26.178;2023-05-14T04:21:16;8.30;99.90
64226;DHT22;50545;56.064;26.178;2023-05-14T04:23:43;8.40;99.90
64226;DHT22;50545;56.064;26.178;2023-05-14T04:26:10;8.50;99.90
64226;DHT22;50545;56.064;26.178;2023-05-14T04:28:37;8.70;99.90
64226;DHT22;50545;56.064;26.178;2023-05-14T04:31:05;8.90;99.90
64226;DHT22;50545;56.064;26.178;2023-05-14T04:33:32;9.00;99.90
64226;DHT22;50545;56.064;26.178;2023-05-14T04:35:59;9.10;99.90
64226;DHT22;50545;56.064;26.178;2023-05-14T04:38:27;9.30;99.90
64226;DHT22;50545;56.064;26.178;2023-05-14T04:40:54;9.40;99.90
64226;DHT22;50545;56.064;26.178;2023-05-14T04:43:21;9.60;99.90
64226;DHT22;50545;56.064;26.178;2023-05-14T04:45:49;9.80;99.90
64226;DHT22;50545;56.064;26.178;2023-05-14T04:48:17;9.90;99.90
64226;DHT22;50545;56.064;26.178;2023-05-14T04:50:45;10.10;99.90
64226;DHT22;50545;56.064;26.178;2023-05-14T04:53:12;10.20;99.30
64226;DHT22;50545;56.064;26.178;2023-05-14T04:55:39;10.30;95.00
64226;DHT22;50545;56.064;26.178;2023-05-14T04:58:07;10.50;93.00
64226;DHT22;50545;56.064;26.178;2023-05-14T05:00:34;10.70;92.80
64226;DHT22;50545;56.064;26.178;2023-05-14T05:03:01;10.80;94.40
64226;DHT22;50545;56.064;26.178;2023-05-14T05:05:29;10.90;93.20
64226;DHT22;50545;56.064;26.178;2023-05-14T05:07:56;11.00;91.20
64226;DHT22;50545;56.064;26.178;2023-05-14T05:10:24;11.10;90.30
64226;DHT22;50545;56.064;26.178;2023-05-14T05:12:51;11.20;90.80
64226;DHT22;50545;56.064;26.178;2023-05-14T05:15:18;11.40;86.20
64226;DHT22;50545;56.064;26.178;2023-05-14T05:17:46;11.50;81.60
64226;DHT22;50545;56.064;26.178;2023-05-14T05:20:13;11.60;81.20
64226;DHT22;50545;56.064;26.178;2023-05-14T05:22:40;11.80;81.60
64226;DHT22;50545;56.064;26.178;2023-05-14T05:25:08;11.90;81.60
64226;DHT22;50545;56.064;26.178;2023-05-14T05:27:35;12.10;82.90
64226;DHT22;50545;56.064;26.178;2023-05-14T05:30:02;12.20;81.60
64226;DHT22;50545;56.064;26.178;2023-05-14T05:32:30;12.20;80.60
64226;DHT22;50545;56.064;26.178;2023-05-14T05:34:57;12.40;79.90
64226;DHT22;50545;56.064;26.178;2023-05-14T05:37:24;12.50;79.40
64226;DHT22;50545;56.064;26.178;2023-05-14T05:39:52;12.50;78.30
64226;DHT22;50545;56.064;26.178;2023-05-14T05:42:19;12.70;79.80
64226;DHT22;50545;56.064;26.178;2023-05-14T05:44:47;12.80;80.50
64226;DHT22;50545;56.064;26.178;2023-05-14T05:47:14;12.90;84.50
64226;DHT22;50545;56.064;26.178;2023-05-14T05:49:41;13.10;83.50
64226;DHT22;50545;56.064;26.178;2023-05-14T05:52:09;13.20;83.50
64226;DHT22;50545;56.064;26.178;2023-05-14T05:54:36;13.40;77.50
64226;DHT22;50545;56.064;26.178;2023-05-14T05:57:05;13.50;75.60
64226;DHT22;50545;56.064;26.178;2023-05-14T05:59:33;13.60;76.50
64226;DHT22;50545;56.064;26.178;2023-05-14T06:02:00;13.70;78.90
64226;DHT22;50545;56.064;26.178;2023-05-14T06:04:28;13.80;77.80
64226;DHT22;50545;56.064;26.178;2023-05-14T06:06:55;13.90;75.10
64226;DHT22;50545;56.064;26.178;2023-05-14T06:09:22;14.00;75.30
64226;DHT22;50545;56.064;26.178;2023-05-14T06:11:49;14.20;78.20
64226;DHT22;50545;56.064;26.178;2023-05-14T06:14:17;14.20;74.90
64226;DHT22;50545;56.064;26.178;2023-05-14T06:16:44;14.40;76.60
64226;DHT22;50545;56.064;26.178;2023-05-14T06:19:12;14.50;74.30
64226;DHT22;50545;56.064;26.178;2023-05-14T06:21:39;14.70;75.80
64226;DHT22;50545;56.064;26.178;2023-05-14T06:24:07;14.80;76.80
64226;DHT22;50545;56.064;26.178;2023-05-14T06:26:34;15.00;74.50
64226;DHT22;50545;56.064;26.178;2023-05-14T06:29:01;15.10;74.10
64226;DHT22;50545;56.064;26.178;2023-05-14T06:31:28;15.30;75.70
64226;DHT22;50545;56.064;26.178;2023-05-14T06:33:56;15.50;75.40
64226;DHT22;50545;56.064;26.178;2023-05-14T06:36:23;15.60;66.00
64226;DHT22;50545;56.064;26.178;2023-05-14T06:38:50;15.70;64.70
64226;DHT22;50545;56.064;26.178;2023-05-14T06:41:17;15.80;64.00
64226;DHT22;50545;56.064;26.178;2023-05-14T06:43:44;16.00;66.70
64226;DHT22;50545;56.064;26.178;2023-05-14T06:46:11;16.10;64.50
64226;DHT22;50545;56.064;26.178;2023-05-14T06:48:39;16.20;66.40
64226;DHT22;50545;56.064;26.178;2023-05-14T06:51:06;16.40;69.20
64226;DHT22;50545;56.064;26.178;2023-05-14T06:53:33;16.60;71.80
64226;DHT22;50545;56.064;26.178;2023-05-14T06:56:00;16.70;67.40
64226;DHT22;50545;56.064;26.178;2023-05-14T06:58:27;16.80;57.70
64226;DHT22;50545;56.064;26.178;2023-05-14T07:00:55;16.90;55.40
64226;DHT22;50545;56.064;26.178;2023-05-14T07:03:22;17.00;58.30
64226;DHT22;50545;56.064;26.178;2023-05-14T07:05:49;17.20;58.90
64226;DHT22;50545;56.064;26.178;2023-05-14T07:08:16;17.30;61.50
64226;DHT22;50545;56.064;26.178;2023-05-14T07:10:43;17.50;55.90
64226;DHT22;50545;56.064;26.178;2023-05-14T07:13:11;17.60;55.20
64226;DHT22;50545;56.064;26.178;2023-05-14T07:15:38;17.70;55.80
64226;DHT22;50545;56.064;26.178;2023-05-14T07:18:05;17.90;56.60
64226;DHT22;50545;56.064;26.178;2023-05-14T07:20:33;18.00;55.40
64226;DHT22;50545;56.064;26.178;2023-05-14T07:23:00;18.10;52.20
64226;DHT22;50545;56.064;26.178;2023-05-14T07:25:27;18.20;50.50
64226;DHT22;50545;56.064;26.178;2023-05-14T07:27:54;18.40;55.40
64226;DHT22;50545;56.064;26.178;2023-05-14T07:30:22;18.50;48.90
64226;DHT22;50545;56.064;26.178;2023-05-14T07:32:50;18.60;51.40
64226;DHT22;50545;56.064;26.178;2023-05-14T07:35:17;18.70;51.10
64226;DHT22;50545;56.064;26.178;2023-05-14T07:37:44;18.80;53.10
64226;DHT22;50545;56.064;26.178;2023-05-14T07:40:12;19.00;52.10
64226;DHT22;50545;56.064;26.178;2023-05-14T07:42:39;19.20;50.70
64226;DHT22;50545;56.064;26.178;2023-05-14T07:45:06;19.40;50.60
64226;DHT22;50545;56.064;26.178;2023-05-14T07:47:35;19.60;49.20
64226;DHT22;50545;56.064;26.178;2023-05-14T07:50:02;19.70;49.80
64226;DHT22;50545;56.064;26.178;2023-05-14T07:52:30;19.80;52.50
64226;DHT22;50545;56.064;26.178;2023-05-14T07:54:57;20.00;47.00
64226;DHT22;50545;56.064;26.178;2023-05-14T07:57:26;20.10;47.40
64226;DHT22;50545;56.064;26.178;2023-05-14T07:59:53;20.30;48.60
64226;DHT22;50545;56.064;26.178;2023-05-14T08:02:21;20.30;51.90
64226;DHT22;50545;56.064;26.178;2023-05-14T08:04:48;20.50;52.30
64226;DHT22;50545;56.064;26.178;2023-05-14T08:07:15;20.60;46.50
64226;DHT22;50545;56.064;26.178;2023-05-14T08:09:43;20.70;49.90
64226;DHT22;50545;56.064;26.178;2023-05-14T08:12:10;20.90;49.60
64226;DHT22;50545;56.064;26.178;2023-05-14T08:14:37;21.00;46.50
64226;DHT22;50545;56.064;26.178;2023-05-14T08:17:05;21.10;44.00
64226;DHT22;50545;56.064;26.178;2023-05-14T08:19:32;21.20;45.90
64226;DHT22;50545;56.064;26.178;2023-05-14T08:21:59;21.30;46.30
64226;DHT22;50545;56.064;26.178;2023-05-14T08:24:26;21.40;44.30
64226;DHT22;50545;56.064;26.178;2023-05-14T08:26:54;21.40;41.40
64226;DHT22;50545;56.064;26.178;2023-05-14T08:29:21;21.50;44.30
64226;DHT22;50545;56.064;26.178;2023-05-14T08:31:49;21.50;42.40
64226;DHT22;50545;56.064;26.178;2023-05-14T08:34:17;21.50;41.20
64226;DHT22;50545;56.064;26.178;2023-05-14T08:36:44;21.50;39.50
64226;DHT22;50545;56.064;26.178;2023-05-14T08:39:11;21.60;41.10
64226;DHT22;50545;56.064;26.178;2023-05-14T08:41:39;21.70;37.50
64226;DHT22;50545;56.064;26.178;2023-05-14T08:44:18;21.80;38.70
64226;DHT22;50545;56.064;26.178;2023-05-14T08:46:45;21.90;38.20
64226;DHT22;50545;56.064;26.178;2023-05-14T08:51:46;22.00;39.90
64226;DHT22;50545;56.064;26.178;2023-05-14T08:54:15;22.20;39.40
64226;DHT22;50545;56.064;26.178;2023-05-14T08:56:50;22.30;38.10
64226;DHT22;50545;56.064;26.178;2023-05-14T08:59:18;22.40;38.40
64226;DHT22;50545;56.064;26.178;2023-05-14T09:01:47;22.40;37.80
64226;DHT22;50545;56.064;26.178;2023-05-14T09:04:19;22.40;36.50
64226;DHT22;50545;56.064;26.178;2023-05-14T09:06:52;22.40;36.40
64226;DHT22;50545;56.064;26.178;2023-05-14T09:09:19;22.40;36.50
64226;DHT22;50545;56.064;26.178;2023-05-14T09:11:50;22.40;37.00
64226;DHT22;50545;56.064;26.178;2023-05-14T09:14:18;22.30;37.70
64226;DHT22;50545;56.064;26.178;2023-05-14T09:16:47;22.40;37.80
64226;DHT22;50545;56.064;26.178;2023-05-14T09:19:15;22.60;41.90
64226;DHT22;50545;56.064;26.178;2023-05-14T09:21:46;22.60;40.50
64226;DHT22;50545;56.064;26.178;2023-05-14T09:24:20;22.70;35.90
64226;DHT22;50545;56.064;26.178;2023-05-14T09:26:56;22.70;38.10
64226;DHT22;50545;56.064;26.178;2023-05-14T09:29:28;22.70;34.60
64226;DHT22;50545;56.064;26.178;2023-05-14T09:31:56;22.80;38.80
64226;DHT22;50545;56.064;26.178;2023-05-14T09:34:29;23.00;36.60
64226;DHT22;50545;56.064;26.178;2023-05-14T09:39:25;23.20;34.00
64226;DHT22;50545;56.064;26.178;2023-05-14T09:41:53;23.30;36.70
64226;DHT22;50545;56.064;26.178;2023-05-14T09:44:22;23.40;36.40
64226;DHT22;50545;56.064;26.178;2023-05-14T09:46:50;23.40;37.20
64226;DHT22;50545;56.064;26.178;2023-05-14T09:49:17;23.50;33.70
64226;DHT22;50545;56.064;26.178;2023-05-14T09:51:45;23.60;34.10
64226;DHT22;50545;56.064;26.178;2023-05-14T09:54:12;23.80;35.90
64226;DHT22;50545;56.064;26.178;2023-05-14T09:56:39;23.80;33.90
64226;DHT22;50545;56.064;26.178;2023-05-14T09:59:06;23.90;34.90
64226;DHT22;50545;56.064;26.178;2023-05-14T10:01:34;23.90;33.60
64226;DHT22;50545;56.064;26.178;2023-05-14T10:04:02;24.00;32.50
64226;DHT22;50545;56.064;26.178;2023-05-14T10:06:35;24.00;33.90
64226;DHT22;50545;56.064;26.178;2023-05-14T10:09:07;24.00;32.20
64226;DHT22;50545;56.064;26.178;2023-05-14T10:11:37;24.00;35.80
64226;DHT22;50545;56.064;26.178;2023-05-14T10:14:12;24.00;32.70
64226;DHT22;50545;56.064;26.178;2023-05-14T10:16:49;24.20;37.10
64226;DHT22;50545;56.064;26.178;2023-05-14T10:19:19;24.40;33.70
64226;DHT22;50545;56.064;26.178;2023-05-14T10:21:52;24.70;35.10
64226;DHT22;50545;56.064;26.178;2023-05-14T10:24:21;24.80;32.70
64226;DHT22;50545;56.064;26.178;2023-05-14T10:26:49;24.80;32.30
64226;DHT22;50545;56.064;26.178;2023-05-14T10:29:17;24.90;33.30
64226;DHT22;50545;56.064;26.178;2023-05-14T10:37:14;24.60;31.50
64226;DHT22;50545;56.064;26.178;2023-05-14T10:39:52;24.60;34.40
64226;DHT22;50545;56.064;26.178;2023-05-14T10:42:34;24.40;30.60
64226;DHT22;50545;56.064;26.178;2023-05-14T10:45:04;24.10;31.30
64226;DHT22;50545;56.064;26.178;2023-05-14T10:47:35;23.80;31.50
64226;DHT22;50545;56.064;26.178;2023-05-14T10:50:05;24.00;36.40
64226;DHT22;50545;56.064;26.178;2023-05-14T10:52:34;24.30;37.50
64226;DHT22;50545;56.064;26.178;2023-05-14T10:55:05;24.60;36.40
64226;DHT22;50545;56.064;26.178;2023-05-14T10:57:38;24.90;32.10
64226;DHT22;50545;56.064;26.178;2023-05-14T11:00:06;24.90;30.30
64226;DHT22;50545;56.064;26.178;2023-05-14T11:02:37;24.90;32.90
64226;DHT22;50545;56.064;26.178;2023-05-14T11:05:16;25.00;33.50
64226;DHT22;50545;56.064;26.178;2023-05-14T11:07:45;25.20;31.80
64226;DHT22;50545;56.064;26.178;2023-05-14T11:10:14;25.40;35.90
64226;DHT22;50545;56.064;26.178;2023-05-14T11:12:44;25.50;32.00
64226;DHT22;50545;56.064;26.178;2023-05-14T11:15:16;25.70;32.70
64226;DHT22;50545;56.064;26.178;2023-05-14T11:17:45;25.90;31.10
64226;DHT22;50545;56.064;26.178;2023-05-14T11:20:13;25.80;29.50
64226;DHT22;50545;56.064;26.178;2023-05-14T11:22:43;25.90;31.20
64226;DHT22;50545;56.064;26.178;2023-05-14T11:25:11;25.90;28.70
64226;DHT22;50545;56.064;26.178;2023-05-14T11:27:44;25.80;28.50
64226;DHT22;50545;56.064;26.178;2023-05-14T11:30:16;25.70;28.50
64226;DHT22;50545;56.064;26.178;2023-05-14T11:32:45;25.30;28.40
64226;DHT22;50545;56.064;26.178;2023-05-14T11:35:14;25.30;29.00
64226;DHT22;50545;56.064;26.178;2023-05-14T11:37:42;25.30;29.40
64226;DHT22;50545;56.064;26.178;2023-05-14T11:40:15;25.40;30.60
64226;DHT22;50545;56.064;26.178;2023-05-14T11:42:43;25.70;32.50
64226;DHT22;50545;56.064;26.178;2023-05-14T11:45:11;26.10;32.10
64226;DHT22;50545;56.064;26.178;2023-05-14T11:47:42;26.20;29.30
64226;DHT22;50545;56.064;26.178;2023-05-14T11:50:12;26.30;34.50
64226;DHT22;50545;56.064;26.178;2023-05-14T11:52:39;26.50;30.70
64226;DHT22;50545;56.064;26.178;2023-05-14T11:55:11;26.70;31.30
64226;DHT22;50545;56.064;26.178;2023-05-14T11:57:39;26.80;32.70
64226;DHT22;50545;56.064;26.178;2023-05-14T12:00:10;27.10;33.30
64226;DHT22;50545;56.064;26.178;2023-05-14T12:02:40;27.30;33.60
64226;DHT22;50545;56.064;26.178;2023-05-14T12:05:11;27.60;31.00
64226;DHT22;50545;56.064;26.178;2023-05-14T12:07:38;27.70;31.30
64226;DHT22;50545;56.064;26.178;2023-05-14T12:10:06;27.20;28.50
64226;DHT22;50545;56.064;26.178;2023-05-14T12:12:35;26.60;28.80
64226;DHT22;50545;56.064;26.178;2023-05-14T12:15:11;26.10;27.50
64226;DHT22;50545;56.064;26.178;2023-05-14T12:17:40;26.10;28.30
64226;DHT22;50545;56.064;26.178;2023-05-14T12:20:09;26.00;28.70
64226;DHT22;50545;56.064;26.178;2023-05-14T12:22:37;25.70;29.00
64226;DHT22;50545;56.064;26.178;2023-05-14T12:25:11;25.70;33.50
64226;DHT22;50545;56.064;26.178;2023-05-14T12:27:39;25.70;29.10
64226;DHT22;50545;56.064;26.178;2023-05-14T12:30:07;25.70;28.50
64226;DHT22;50545;56.064;26.178;2023-05-14T12:32:38;26.10;29.50
64226;DHT22;50545;56.064;26.178;2023-05-14T12:35:07;26.40;29.20
64226;DHT22;50545;56.064;26.178;2023-05-14T12:37:35;26.80;31.80
64226;DHT22;50545;56.064;26.178;2023-05-14T12:40:03;27.20;31.10
64226;DHT22;50545;56.064;26.178;2023-05-14T12:42:35;27.60;27.80
64226;DHT22;50545;56.064;26.178;2023-05-14T12:45:03;27.80;29.70
64226;DHT22;50545;56.064;26.178;2023-05-14T12:47:34;27.80;28.20
64226;DHT22;50545;56.064;26.178;2023-05-14T12:50:02;27.50;26.70
64226;DHT22;50545;56.064;26.178;2023-05-14T12:52:30;27.50;27.90
64226;DHT22;50545;56.064;26.178;2023-05-14T12:55:00;27.70;30.80
64226;DHT22;50545;56.064;26.178;2023-05-14T12:57:27;27.90;30.00
64226;DHT22;50545;56.064;26.178;2023-05-14T12:59:56;28.30;30.40
64226;DHT22;50545;56.064;26.178;2023-05-14T13:02:23;28.50;29.40
64226;DHT22;50545;56.064;26.178;2023-05-14T13:04:50;28.50;26.70
64226;DHT22;50545;56.064;26.178;2023-05-14T13:07:18;28.20;26.30
64226;DHT22;50545;56.064;26.178;2023-05-14T13:09:45;27.80;26.00
64226;DHT22;50545;56.064;26.178;2023-05-14T13:12:12;27.60;28.30
64226;DHT22;50545;56.064;26.178;2023-05-14T13:14:39;27.70;26.50
64226;DHT22;50545;56.064;26.178;2023-05-14T13:17:07;27.90;29.00
64226;DHT22;50545;56.064;26.178;2023-05-14T13:19:34;28.30;28.30
64226;DHT22;50545;56.064;26.178;2023-05-14T13:22:01;28.90;28.00
64226;DHT22;50545;56.064;26.178;2023-05-14T13:24:29;29.10;27.40
64226;DHT22;50545;56.064;26.178;2023-05-14T13:26:56;29.50;29.10
64226;DHT22;50545;56.064;26.178;2023-05-14T13:29:23;29.90;28.40
64226;DHT22;50545;56.064;26.178;2023-05-14T13:31:50;30.40;29.20
64226;DHT22;50545;56.064;26.178;2023-05-14T13:34:18;30.80;27.40
64226;DHT22;50545;56.064;26.178;2023-05-14T13:36:46;31.10;25.80
64226;DHT22;50545;56.064;26.178;2023-05-14T13:39:15;31.30;26.20
64226;DHT22;50545;56.064;26.178;2023-05-14T13:41:42;30.80;26.10
64226;DHT22;50545;56.064;26.178;2023-05-14T13:44:09;29.80;26.00
64226;DHT22;50545;56.064;26.178;2023-05-14T13:46:36;29.00;26.70
64226;DHT22;50545;56.064;26.178;2023-05-14T13:49:04;28.10;27.20
64226;DHT22;50545;56.064;26.178;2023-05-14T13:51:32;27.80;27.30
64226;DHT22;50545;56.064;26.178;2023-05-14T13:53:59;27.80;26.80
64226;DHT22;50545;56.064;26.178;2023-05-14T13:56:26;28.10;28.30
64226;DHT22;50545;56.064;26.178;2023-05-14T13:58:54;28.50;30.10
64226;DHT22;50545;56.064;26.178;2023-05-14T14:01:21;29.00;29.00
64226;DHT22;50545;56.064;26.178;2023-05-14T14:03:49;29.40;28.10
64226;DHT22;50545;56.064;26.178;2023-05-14T14:06:16;29.70;27.40
64226;DHT22;50545;56.064;26.178;2023-05-14T14:08:43;29.90;26.90
64226;DHT22;50545;56.064;26.178;2023-05-14T14:11:11;29.70;26.20
64226;DHT22;50545;56.064;26.178;2023-05-14T14:13:39;29.80;27.10
64226;DHT22;50545;56.064;26.178;2023-05-14T14:16:08;30.10;27.80
64226;DHT22;50545;56.064;26.178;2023-05-14T14:18:36;30.50;28.50
64226;DHT22;50545;56.064;26.178;2023-05-14T14:21:03;30.80;26.80
64226;DHT22;50545;56.064;26.178;2023-05-14T14:23:31;30.90;27.00
64226;DHT22;50545;56.064;26.178;2023-05-14T14:25:58;31.20;25.90
64226;DHT22;50545;56.064;26.178;2023-05-14T14:28:26;31.10;27.60
64226;DHT22;50545;56.064;26.178;2023-05-14T14:30:53;31.20;26.00
64226;DHT22;50545;56.064;26.178;2023-05-14T14:33:20;31.40;26.10
64226;DHT22;50545;56.064;26.178;2023-05-14T14:35:47;31.40;26.40
64226;DHT22;50545;56.064;26.178;2023-05-14T14:38:14;31.30;25.50
64226;DHT22;50545;56.064;26.178;2023-05-14T14:40:41;31.30;26.70
64226;DHT22;50545;56.064;26.178;2023-05-14T14:43:09;31.40;25.10
64226;DHT22;50545;56.064;26.178;2023-05-14T14:45:36;31.10;25.40
64226;DHT22;50545;56.064;26.178;2023-05-14T14:50:50;30.80;26.40
64226;DHT22;50545;56.064;26.178;2023-05-14T14:53:19;30.60;25.10
64226;DHT22;50545;56.064;26.178;2023-05-14T14:55:47;30.50;25.20
64226;DHT22;50545;56.064;26.178;2023-05-14T14:58:15;30.70;27.20
64226;DHT22;50545;56.064;26.178;2023-05-14T15:00:42;30.90;25.80
64226;DHT22;50545;56.064;26.178;2023-05-14T15:03:10;30.60;25.30
64226;DHT22;50545;56.064;26.178;2023-05-14T15:05:38;30.20;25.60
64226;DHT22;50545;56.064;26.178;2023-05-14T15:08:05;30.30;24.70
64226;DHT22;50545;56.064;26.178;2023-05-14T15:10:32;30.50;25.60
64226;DHT22;50545;56.064;26.178;2023-05-14T15:13:05;30.80;25.20
64226;DHT22;50545;56.064;26.178;2023-05-14T15:15:34;31.10;26.70
64226;DHT22;50545;56.064;26.178;2023-05-14T15:18:02;31.50;25.10
64226;DHT22;50545;56.064;26.178;2023-05-14T15:20:30;31.40;25.00
64226;DHT22;50545;56.064;26.178;2023-05-14T15:22:57;31.10;24.70
64226;DHT22;50545;56.064;26.178;2023-05-14T15:25:25;31.00;27.00
64226;DHT22;50545;56.064;26.178;2023-05-14T15:27:53;30.90;25.30
64226;DHT22;50545;56.064;26.178;2023-05-14T15:30:20;31.00;25.30
64226;DHT22;50545;56.064;26.178;2023-05-14T15:32:47;31.10;24.70
64226;DHT22;50545;56.064;26.178;2023-05-14T15:35:14;31.00;25.80
64226;DHT22;50545;56.064;26.178;2023-05-14T15:37:43;31.10;25.60
64226;DHT22;50545;56.064;26.178;2023-05-14T15:40:11;31.40;27.10
64226;DHT22;50545;56.064;26.178;2023-05-14T15:42:40;31.60;25.10